sensor_id;sensor_type;location;lat;lon;timestamp;pressure;altitude;pressure_sealevel;temperature
62831;BMP280;48889;55.782;37.708;2022-07-12T00:01:55;99360.22;;;23.50
62831;BMP280;48889;55.782;37.708;2022-07-12T00:04:21;99354.50;;;23.48
62831;BMP280;48889;55.782;37.708;2022-07-12T00:06:47;99352.44;;;23.49
62831;BMP280;48889;55.782;37.708;2022-07-12T00:09:13;99352.44;;;23.49
62831;BMP280;48889;55.782;37.708;2022-07-12T00:11:38;99354.06;;;23.52
62831;BMP280;48889;55.782;37.708;2022-07-12T00:14:04;99349.44;;;23.54
62831;BMP280;48889;55.782;37.708;2022-07-12T00:16:31;99351.50;;;23.54
62831;BMP280;48889;55.782;37.708;2022-07-12T00:18:56;99352.38;;;23.56
62831;BMP280;48889;55.782;37.708;2022-07-12T00:21:22;99352.38;;;23.56
62831;BMP280;48889;55.782;37.708;2022-07-12T00:23:47;99346.81;;;23.56
62831;BMP280;48889;55.782;37.708;2022-07-12T00:26:13;99350.19;;;23.55
62831;BMP280;48889;55.782;37.708;2022-07-12T00:28:39;99357.94;;;23.56
62831;BMP280;48889;55.782;37.708;2022-07-12T00:31:05;99357.94;;;23.56
62831;BMP280;48889;55.782;37.708;2022-07-12T00:33:30;99349.44;;;23.54
62831;BMP280;48889;55.782;37.708;2022-07-12T00:35:56;99349.44;;;23.54
62831;BMP280;48889;55.782;37.708;2022-07-12T00:38:22;99346.47;;;23.52
62831;BMP280;48889;55.782;37.708;2022-07-12T00:40:47;99335.75;;;23.49
62831;BMP280;48889;55.782;37.708;2022-07-12T00:43:13;99341.34;;;23.41
62831;BMP280;48889;55.782;37.708;2022-07-12T00:45:40;99341.34;;;23.41
62831;BMP280;48889;55.782;37.708;2022-07-12T00:48:06;99334.16;;;23.38
62831;BMP280;48889;55.782;37.708;2022-07-12T00:50:31;99337.34;;;23.34
62831;BMP280;48889;55.782;37.708;2022-07-12T00:52:57;99339.97;;;23.32
62831;BMP280;48889;55.782;37.708;2022-07-12T00:55:25;99339.22;;;23.32
62831;BMP280;48889;55.782;37.708;2022-07-12T00:57:50;99332.94;;;23.31
62831;BMP280;48889;55.782;37.708;2022-07-12T01:00:18;99332.94;;;23.31
62831;BMP280;48889;55.782;37.708;2022-07-12T01:02:45;99334.78;;;23.29
62831;BMP280;48889;55.782;37.708;2022-07-12T01:05:12;99312.72;;;23.31
62831;BMP280;48889;55.782;37.708;2022-07-12T01:07:38;99307.28;;;23.33
62831;BMP280;48889;55.782;37.708;2022-07-12T01:10:06;99292.50;;;23.30
62831;BMP280;48889;55.782;37.708;2022-07-12T01:12:32;99292.50;;;23.30
62831;BMP280;48889;55.782;37.708;2022-07-12T01:14:58;99293.97;;;23.31
62831;BMP280;48889;55.782;37.708;2022-07-12T01:17:26;99293.97;;;23.31
62831;BMP280;48889;55.782;37.708;2022-07-12T01:19:53;99278.06;;;23.24
62831;BMP280;48889;55.782;37.708;2022-07-12T01:22:21;99279.91;;;23.22
62831;BMP280;48889;55.782;37.708;2022-07-12T01:24:50;99279.91;;;23.22
62831;BMP280;48889;55.782;37.708;2022-07-12T01:27:16;99269.22;;;23.18
62831;BMP280;48889;55.782;37.708;2022-07-12T01:29:42;99284.09;;;23.13
62831;BMP280;48889;55.782;37.708;2022-07-12T01:32:08;99284.09;;;23.13
62831;BMP280;48889;55.782;37.708;2022-07-12T01:34:59;99281.13;;;23.11
62831;BMP280;48889;55.782;37.708;2022-07-12T01:37:28;99284.88;;;23.06
62831;BMP280;48889;55.782;37.708;2022-07-12T01:39:55;99278.41;;;23.04
62831;BMP280;48889;55.782;37.708;2022-07-12T01:42:22;99281.03;;;23.02
62831;BMP280;48889;55.782;37.708;2022-07-12T01:44:50;99280.84;;;22.99
62831;BMP280;48889;55.782;37.708;2022-07-12T01:47:18;99272.34;;;22.97
62831;BMP280;48889;55.782;37.708;2022-07-12T01:49:43;99260.47;;;22.97
62831;BMP280;48889;55.782;37.708;2022-07-12T01:52:10;99256.22;;;22.96
62831;BMP280;48889;55.782;37.708;2022-07-12T01:54:35;99247.31;;;22.97
62831;BMP280;48889;55.782;37.708;2022-07-12T01:57:05;99247.31;;;22.97
62831;BMP280;48889;55.782;37.708;2022-07-12T01:59:31;99248.19;;;23.00
62831;BMP280;48889;55.782;37.708;2022-07-12T02:01:57;99258.19;;;23.03
62831;BMP280;48889;55.782;37.708;2022-07-12T02:04:23;99244.06;;;23.09
62831;BMP280;48889;55.782;37.708;2022-07-12T02:06:49;99244.06;;;23.09
62831;BMP280;48889;55.782;37.708;2022-07-12T02:09:17;99242.91;;;23.12
62831;BMP280;48889;55.782;37.708;2022-07-12T02:11:43;99241.44;;;23.11
62831;BMP280;48889;55.782;37.708;2022-07-12T02:14:10;99237.34;;;23.12
62831;BMP280;48889;55.782;37.708;2022-07-12T02:16:40;99217.88;;;23.12
62831;BMP280;48889;55.782;37.708;2022-07-12T02:19:07;99215.84;;;23.12
62831;BMP280;48889;55.782;37.708;2022-07-12T02:21:33;99215.84;;;23.12
62831;BMP280;48889;55.782;37.708;2022-07-12T02:23:59;99212.50;;;23.14
62831;BMP280;48889;55.782;37.708;2022-07-12T02:26:25;99199.09;;;23.20
62831;BMP280;48889;55.782;37.708;2022-07-12T02:28:51;99188.25;;;23.24
62831;BMP280;48889;55.782;37.708;2022-07-12T02:31:16;99188.25;;;23.24
62831;BMP280;48889;55.782;37.708;2022-07-12T02:33:42;99181.56;;;23.27
62831;BMP280;48889;55.782;37.708;2022-07-12T02:36:08;99190.06;;;23.29
62831;BMP280;48889;55.782;37.708;2022-07-12T02:38:33;99182.03;;;23.33
62831;BMP280;48889;55.782;37.708;2022-07-12T02:40:59;99182.78;;;23.33
62831;BMP280;48889;55.782;37.708;2022-07-12T02:43:29;99191.13;;;23.33
62831;BMP280;48889;55.782;37.708;2022-07-12T02:46:03;99182.03;;;23.33
62831;BMP280;48889;55.782;37.708;2022-07-12T02:48:29;99189.50;;;23.30
62831;BMP280;48889;55.782;37.708;2022-07-12T02:50:55;99185.41;;;23.31
62831;BMP280;48889;55.782;37.708;2022-07-12T02:53:21;99180.94;;;23.36
62831;BMP280;48889;55.782;37.708;2022-07-12T02:55:47;99176.59;;;23.43
62831;BMP280;48889;55.782;37.708;2022-07-12T02:58:12;99184.34;;;23.44
62831;BMP280;48889;55.782;37.708;2022-07-12T03:00:38;99184.34;;;23.44
62831;BMP280;48889;55.782;37.708;2022-07-12T03:03:05;99192.94;;;23.38
62831;BMP280;48889;55.782;37.708;2022-07-12T03:05:33;99198.16;;;23.34
62831;BMP280;48889;55.782;37.708;2022-07-12T03:07:59;99198.16;;;23.34
62831;BMP280;48889;55.782;37.708;2022-07-12T03:10:25;99202.69;;;23.30
62831;BMP280;48889;55.782;37.708;2022-07-12T03:12:51;99210.13;;;23.27
62831;BMP280;48889;55.782;37.708;2022-07-12T03:15:16;99212.03;;;23.25
62831;BMP280;48889;55.782;37.708;2022-07-12T03:17:42;99192.88;;;23.29
62831;BMP280;48889;55.782;37.708;2022-07-12T03:20:08;99192.88;;;23.29
62831;BMP280;48889;55.782;37.708;2022-07-12T03:22:37;99193.34;;;23.35
62831;BMP280;48889;55.782;37.708;2022-07-12T03:25:03;99202.50;;;23.45
62831;BMP280;48889;55.782;37.708;2022-07-12T03:27:29;99208.19;;;23.55
62831;BMP280;48889;55.782;37.708;2022-07-12T03:29:57;99202.50;;;23.62
62831;BMP280;48889;55.782;37.708;2022-07-12T03:32:23;99201.03;;;23.79
62831;BMP280;48889;55.782;37.708;2022-07-12T03:34:48;99201.03;;;23.79
62831;BMP280;48889;55.782;37.708;2022-07-12T03:37:14;99208.81;;;23.80
62831;BMP280;48889;55.782;37.708;2022-07-12T03:39:40;99204.88;;;23.83
62831;BMP280;48889;55.782;37.708;2022-07-12T03:42:05;99202.41;;;23.87
62831;BMP280;48889;55.782;37.708;2022-07-12T03:44:31;99200.53;;;23.90
62831;BMP280;48889;55.782;37.708;2022-07-12T03:46:56;99203.44;;;23.92
62831;BMP280;48889;55.782;37.708;2022-07-12T03:49:23;99204.19;;;23.92
62831;BMP280;48889;55.782;37.708;2022-07-12T03:51:49;99204.91;;;23.93
62831;BMP280;48889;55.782;37.708;2022-07-12T03:54:14;99200.75;;;24.01
62831;BMP280;48889;55.782;37.708;2022-07-12T03:56:40;99200.75;;;24.01
62831;BMP280;48889;55.782;37.708;2022-07-12T03:59:24;99191.69;;;24.10
62831;BMP280;48889;55.782;37.708;2022-07-12T04:01:50;99195.38;;;24.13
62831;BMP280;48889;55.782;37.708;2022-07-12T04:04:15;99201.84;;;24.16
62831;BMP280;48889;55.782;37.708;2022-07-12T04:06:41;99203.38;;;24.26
62831;BMP280;48889;55.782;37.708;2022-07-12T04:09:06;99203.38;;;24.26
62831;BMP280;48889;55.782;37.708;2022-07-12T04:11:33;99204.69;;;24.35
62831;BMP280;48889;55.782;37.708;2022-07-12T04:14:00;99216.06;;;24.46
62831;BMP280;48889;55.782;37.708;2022-07-12T04:16:25;99214.56;;;24.45
62831;BMP280;48889;55.782;37.708;2022-07-12T04:18:51;99214.56;;;24.45
62831;BMP280;48889;55.782;37.708;2022-07-12T04:21:17;99206.06;;;24.43
62831;BMP280;48889;55.782;37.708;2022-07-12T04:23:43;99212.97;;;24.42
62831;BMP280;48889;55.782;37.708;2022-07-12T04:26:09;99226.91;;;24.42
62831;BMP280;48889;55.782;37.708;2022-07-12T04:28:35;99226.91;;;24.42
62831;BMP280;48889;55.782;37.708;2022-07-12T04:31:00;99219.00;;;24.48
62831;BMP280;48889;55.782;37.708;2022-07-12T04:33:26;99219.03;;;24.58
62831;BMP280;48889;55.782;37.708;2022-07-12T04:35:53;99224.25;;;24.71
62831;BMP280;48889;55.782;37.708;2022-07-12T04:38:18;99221.34;;;24.98
62831;BMP280;48889;55.782;37.708;2022-07-12T04:40:44;99221.34;;;24.98
62831;BMP280;48889;55.782;37.708;2022-07-12T04:43:09;99221.66;;;25.12
62831;BMP280;48889;55.782;37.708;2022-07-12T04:45:35;99216.25;;;25.23
62831;BMP280;48889;55.782;37.708;2022-07-12T04:48:00;99224.19;;;25.37
62831;BMP280;48889;55.782;37.708;2022-07-12T04:50:26;99218.59;;;25.56
62831;BMP280;48889;55.782;37.708;2022-07-12T04:52:52;99218.59;;;25.56
62831;BMP280;48889;55.782;37.708;2022-07-12T04:55:18;99223.16;;;25.61
62831;BMP280;48889;55.782;37.708;2022-07-12T04:57:43;99219.75;;;25.82
62831;BMP280;48889;55.782;37.708;2022-07-12T05:00:09;99219.75;;;25.82
62831;BMP280;48889;55.782;37.708;2022-07-12T05:02:35;99221.91;;;25.93
62831;BMP280;48889;55.782;37.708;2022-07-12T05:05:00;99236.00;;;26.14
62831;BMP280;48889;55.782;37.708;2022-07-12T05:07:28;99219.34;;;26.16
62831;BMP280;48889;55.782;37.708;2022-07-12T05:09:54;99244.66;;;26.18
62831;BMP280;48889;55.782;37.708;2022-07-12T05:12:20;99244.66;;;26.18
62831;BMP280;48889;55.782;37.708;2022-07-12T05:14:47;99237.03;;;26.19
62831;BMP280;48889;55.782;37.708;2022-07-12T05:17:12;99229.22;;;26.17
62831;BMP280;48889;55.782;37.708;2022-07-12T05:19:38;99231.28;;;26.17
62831;BMP280;48889;55.782;37.708;2022-07-12T05:22:04;99230.09;;;26.20
62831;BMP280;48889;55.782;37.708;2022-07-12T05:24:29;99225.97;;;26.21
62831;BMP280;48889;55.782;37.708;2022-07-12T05:26:55;99229.69;;;26.14
62831;BMP280;48889;55.782;37.708;2022-07-12T05:29:21;99238.50;;;26.20
62831;BMP280;48889;55.782;37.708;2022-07-12T05:31:47;99238.50;;;26.20
62831;BMP280;48889;55.782;37.708;2022-07-12T05:34:13;99229.94;;;26.18
62831;BMP280;48889;55.782;37.708;2022-07-12T05:36:39;99234.38;;;26.21
62831;BMP280;48889;55.782;37.708;2022-07-12T05:39:05;99230.69;;;26.18
62831;BMP280;48889;55.782;37.708;2022-07-12T05:41:31;99223.19;;;26.21
62831;BMP280;48889;55.782;37.708;2022-07-12T05:43:56;99230.25;;;26.22
62831;BMP280;48889;55.782;37.708;2022-07-12T05:46:22;99234.91;;;26.38
62831;BMP280;48889;55.782;37.708;2022-07-12T05:48:48;99234.91;;;26.38
62831;BMP280;48889;55.782;37.708;2022-07-12T05:51:13;99235.00;;;26.50
62831;BMP280;48889;55.782;37.708;2022-07-12T05:53:57;99240.28;;;26.46
62831;BMP280;48889;55.782;37.708;2022-07-12T05:56:24;99226.00;;;26.42
62831;BMP280;48889;55.782;37.708;2022-07-12T05:58:50;99238.00;;;26.33
62831;BMP280;48889;55.782;37.708;2022-07-12T06:01:17;99235.63;;;26.29
62831;BMP280;48889;55.782;37.708;2022-07-12T06:03:43;99235.09;;;26.31
62831;BMP280;48889;55.782;37.708;2022-07-12T06:06:09;99252.72;;;26.33
62831;BMP280;48889;55.782;37.708;2022-07-12T06:08:35;99252.72;;;26.33
62831;BMP280;48889;55.782;37.708;2022-07-12T06:11:01;99234.00;;;26.36
62831;BMP280;48889;55.782;37.708;2022-07-12T06:13:26;99236.56;;;26.32
62831;BMP280;48889;55.782;37.708;2022-07-12T06:15:53;99248.25;;;26.50
62831;BMP280;48889;55.782;37.708;2022-07-12T06:18:21;99248.25;;;26.50
62831;BMP280;48889;55.782;37.708;2022-07-12T06:20:47;99246.47;;;26.54
62831;BMP280;48889;55.782;37.708;2022-07-12T06:23:13;99244.81;;;26.61
62831;BMP280;48889;55.782;37.708;2022-07-12T06:25:42;99253.66;;;26.57
62831;BMP280;48889;55.782;37.708;2022-07-12T06:28:07;99253.66;;;26.57
62831;BMP280;48889;55.782;37.708;2022-07-12T06:30:33;99253.25;;;26.51
62831;BMP280;48889;55.782;37.708;2022-07-12T06:32:58;99253.25;;;26.51
62831;BMP280;48889;55.782;37.708;2022-07-12T06:35:25;99252.09;;;26.45
62831;BMP280;48889;55.782;37.708;2022-07-12T06:37:53;99253.75;;;26.38
62831;BMP280;48889;55.782;37.708;2022-07-12T06:40:21;99268.22;;;26.25
62831;BMP280;48889;55.782;37.708;2022-07-12T06:42:48;99269.88;;;26.09
62831;BMP280;48889;55.782;37.708;2022-07-12T06:45:14;99261.50;;;25.89
62831;BMP280;48889;55.782;37.708;2022-07-12T06:47:40;99261.50;;;25.89
62831;BMP280;48889;55.782;37.708;2022-07-12T06:50:05;99263.72;;;25.81
62831;BMP280;48889;55.782;37.708;2022-07-12T06:52:31;99263.41;;;25.77
62831;BMP280;48889;55.782;37.708;2022-07-12T06:54:58;99266.38;;;25.60
62831;BMP280;48889;55.782;37.708;2022-07-12T06:57:25;99277.13;;;25.54
62831;BMP280;48889;55.782;37.708;2022-07-12T06:59:52;99277.13;;;25.54
62831;BMP280;48889;55.782;37.708;2022-07-12T07:02:18;99275.19;;;25.47
62831;BMP280;48889;55.782;37.708;2022-07-12T07:04:43;99267.81;;;25.13
62831;BMP280;48889;55.782;37.708;2022-07-12T07:07:09;99264.41;;;25.05
62831;BMP280;48889;55.782;37.708;2022-07-12T07:09:35;99264.41;;;25.05
62831;BMP280;48889;55.782;37.708;2022-07-12T07:12:00;99276.78;;;25.21
62831;BMP280;48889;55.782;37.708;2022-07-12T07:14:26;99276.78;;;25.21
62831;BMP280;48889;55.782;37.708;2022-07-12T07:16:53;99274.44;;;25.46
62831;BMP280;48889;55.782;37.708;2022-07-12T07:19:19;99274.44;;;25.46
62831;BMP280;48889;55.782;37.708;2022-07-12T07:21:44;99274.47;;;25.56
62831;BMP280;48889;55.782;37.708;2022-07-12T07:24:11;99276.53;;;25.65
62831;BMP280;48889;55.782;37.708;2022-07-12T07:26:37;99270.34;;;25.57
62831;BMP280;48889;55.782;37.708;2022-07-12T07:29:03;99273.16;;;25.57
62831;BMP280;48889;55.782;37.708;2022-07-12T07:31:48;99273.16;;;25.57
62831;BMP280;48889;55.782;37.708;2022-07-12T07:34:13;99266.81;;;25.47
62831;BMP280;48889;55.782;37.708;2022-07-12T07:36:39;99271.97;;;25.41
62831;BMP280;48889;55.782;37.708;2022-07-12T07:39:05;99270.47;;;25.40
62831;BMP280;48889;55.782;37.708;2022-07-12T07:41:30;99280.59;;;25.35
62831;BMP280;48889;55.782;37.708;2022-07-12T07:43:56;99279.75;;;25.42
62831;BMP280;48889;55.782;37.708;2022-07-12T07:46:22;99279.75;;;25.42
62831;BMP280;48889;55.782;37.708;2022-07-12T07:48:47;99279.75;;;25.71
62831;BMP280;48889;55.782;37.708;2022-07-12T07:51:13;99282.03;;;26.23
62831;BMP280;48889;55.782;37.708;2022-07-12T07:53:38;99282.03;;;26.23
62831;BMP280;48889;55.782;37.708;2022-07-12T07:56:04;99280.88;;;26.88
62831;BMP280;48889;55.782;37.708;2022-07-12T07:58:30;99289.41;;;27.75
62831;BMP280;48889;55.782;37.708;2022-07-12T08:00:55;99300.59;;;28.19
62831;BMP280;48889;55.782;37.708;2022-07-12T08:03:21;99299.31;;;28.67
62831;BMP280;48889;55.782;37.708;2022-07-12T08:05:48;99298.72;;;29.17
62831;BMP280;48889;55.782;37.708;2022-07-12T08:08:17;99303.63;;;29.42
62831;BMP280;48889;55.782;37.708;2022-07-12T08:10:43;99295.09;;;29.65
62831;BMP280;48889;55.782;37.708;2022-07-12T08:13:10;99292.34;;;29.79
62831;BMP280;48889;55.782;37.708;2022-07-12T08:15:36;99291.16;;;29.70
62831;BMP280;48889;55.782;37.708;2022-07-12T08:18:03;99308.03;;;29.70
62831;BMP280;48889;55.782;37.708;2022-07-12T08:20:29;99309.47;;;29.71
62831;BMP280;48889;55.782;37.708;2022-07-12T08:22:54;99313.41;;;29.66
62831;BMP280;48889;55.782;37.708;2022-07-12T08:25:20;99320.81;;;29.48
62831;BMP280;48889;55.782;37.708;2022-07-12T08:27:46;99306.50;;;29.18
62831;BMP280;48889;55.782;37.708;2022-07-12T08:30:11;99318.31;;;29.03
62831;BMP280;48889;55.782;37.708;2022-07-12T08:32:37;99312.19;;;28.95
62831;BMP280;48889;55.782;37.708;2022-07-12T08:35:03;99323.22;;;28.91
62831;BMP280;48889;55.782;37.708;2022-07-12T08:37:28;99322.94;;;28.99
62831;BMP280;48889;55.782;37.708;2022-07-12T08:39:56;99323.63;;;29.22
62831;BMP280;48889;55.782;37.708;2022-07-12T08:42:21;99317.88;;;29.57
62831;BMP280;48889;55.782;37.708;2022-07-12T08:44:56;99312.31;;;29.96
62831;BMP280;48889;55.782;37.708;2022-07-12T08:47:22;99308.72;;;30.21
62831;BMP280;48889;55.782;37.708;2022-07-12T08:50:10;99322.13;;;30.23
62831;BMP280;48889;55.782;37.708;2022-07-12T08:52:50;99335.47;;;30.08
62831;BMP280;48889;55.782;37.708;2022-07-12T08:55:30;99333.66;;;30.01
62831;BMP280;48889;55.782;37.708;2022-07-12T08:57:58;99340.88;;;30.04
62831;BMP280;48889;55.782;37.708;2022-07-12T09:00:29;99352.34;;;30.08
62831;BMP280;48889;55.782;37.708;2022-07-12T09:03:00;99352.34;;;30.08
62831;BMP280;48889;55.782;37.708;2022-07-12T09:05:27;99342.94;;;29.90
62831;BMP280;48889;55.782;37.708;2022-07-12T09:10:28;99353.19;;;29.86
62831;BMP280;48889;55.782;37.708;2022-07-12T09:12:54;99360.25;;;30.12
62831;BMP280;48889;55.782;37.708;2022-07-12T09:15:22;99346.88;;;30.38
62831;BMP280;48889;55.782;37.708;2022-07-12T09:17:58;99350.56;;;30.81
62831;BMP280;48889;55.782;37.708;2022-07-12T09:20:25;99365.22;;;31.34
62831;BMP280;48889;55.782;37.708;2022-07-12T09:22:53;99351.25;;;31.52
62831;BMP280;48889;55.782;37.708;2022-07-12T09:25:19;99354.16;;;31.54
62831;BMP280;48889;55.782;37.708;2022-07-12T09:27:54;99347.25;;;31.57
62831;BMP280;48889;55.782;37.708;2022-07-12T09:30:24;99350.47;;;32.10
62831;BMP280;48889;55.782;37.708;2022-07-12T09:32:57;66650.81;;;-145.83
62831;BMP280;48889;55.782;37.708;2022-07-12T09:35:42;66650.81;;;-145.83
62831;BMP280;48889;55.782;37.708;2022-07-12T09:38:27;66650.81;;;-145.83
62831;BMP280;48889;55.782;37.708;2022-07-12T09:40:54;66650.81;;;-145.83
62831;BMP280;48889;55.782;37.708;2022-07-12T09:43:22;66650.81;;;-145.83
62831;BMP280;48889;55.782;37.708;2022-07-12T09:45:48;66650.81;;;-145.83
62831;BMP280;48889;55.782;37.708;2022-07-12T09:48:15;66650.81;;;-145.83
62831;BMP280;48889;55.782;37.708;2022-07-12T09:50:46;66650.81;;;-145.83
62831;BMP280;48889;55.782;37.708;2022-07-12T09:53:19;66650.81;;;-145.83
62831;BMP280;48889;55.782;37.708;2022-07-12T09:55:51;66650.81;;;-145.83
62831;BMP280;48889;55.782;37.708;2022-07-12T09:58:26;66650.81;;;-145.83
62831;BMP280;48889;55.782;37.708;2022-07-12T10:00:53;66650.81;;;-145.83
62831;BMP280;48889;55.782;37.708;2022-07-12T10:03:22;66650.81;;;-145.83
62831;BMP280;48889;55.782;37.708;2022-07-12T10:05:53;66650.81;;;-145.83
62831;BMP280;48889;55.782;37.708;2022-07-12T10:08:20;66650.81;;;-145.83
62831;BMP280;48889;55.782;37.708;2022-07-12T10:10:48;66650.81;;;-145.83
62831;BMP280;48889;55.782;37.708;2022-07-12T10:13:16;66650.81;;;-145.83
62831;BMP280;48889;55.782;37.708;2022-07-12T10:15:46;66650.81;;;-145.83
62831;BMP280;48889;55.782;37.708;2022-07-12T10:18:20;66650.81;;;-145.83
62831;BMP280;48889;55.782;37.708;2022-07-12T10:20:47;66650.81;;;-145.83
62831;BMP280;48889;55.782;37.708;2022-07-12T10:25:51;66650.81;;;-145.83
62831;BMP280;48889;55.782;37.708;2022-07-12T10:28:17;66650.81;;;-145.83
62831;BMP280;48889;55.782;37.708;2022-07-12T10:30:50;66650.81;;;-145.83
62831;BMP280;48889;55.782;37.708;2022-07-12T10:33:23;66650.81;;;-145.83
62831;BMP280;48889;55.782;37.708;2022-07-12T10:36:05;66650.81;;;-145.83
62831;BMP280;48889;55.782;37.708;2022-07-12T10:38:34;66650.81;;;-145.83
62831;BMP280;48889;55.782;37.708;2022-07-12T10:41:19;66650.81;;;-145.83
62831;BMP280;48889;55.782;37.708;2022-07-12T10:43:45;66650.81;;;-145.83
62831;BMP280;48889;55.782;37.708;2022-07-12T10:46:30;66650.81;;;-145.83
62831;BMP280;48889;55.782;37.708;2022-07-12T10:49:27;66650.81;;;-145.83
62831;BMP280;48889;55.782;37.708;2022-07-12T10:52:12;66650.81;;;-145.83
62831;BMP280;48889;55.782;37.708;2022-07-12T10:54:47;66650.81;;;-145.83
62831;BMP280;48889;55.782;37.708;2022-07-12T10:57:47;66650.81;;;-145.83
62831;BMP280;48889;55.782;37.708;2022-07-12T11:00:16;66650.81;;;-145.83
62831;BMP280;48889;55.782;37.708;2022-07-12T11:02:42;66650.81;;;-145.83
62831;BMP280;48889;55.782;37.708;2022-07-12T11:05:09;66650.81;;;-145.83
62831;BMP280;48889;55.782;37.708;2022-07-12T11:07:35;66650.81;;;-145.83
62831;BMP280;48889;55.782;37.708;2022-07-12T11:10:01;66650.81;;;-145.83
62831;BMP280;48889;55.782;37.708;2022-07-12T11:12:30;66650.81;;;-145.83
62831;BMP280;48889;55.782;37.708;2022-07-12T11:14:58;66650.81;;;-145.83
62831;BMP280;48889;55.782;37.708;2022-07-12T11:17:32;66650.81;;;-145.83
62831;BMP280;48889;55.782;37.708;2022-07-12T11:20:12;66650.81;;;-145.83
62831;BMP280;48889;55.782;37.708;2022-07-12T11:22:40;66650.81;;;-145.83
62831;BMP280;48889;55.782;37.708;2022-07-12T11:25:10;66650.81;;;-145.83
62831;BMP280;48889;55.782;37.708;2022-07-12T11:27:36;66650.81;;;-145.83
62831;BMP280;48889;55.782;37.708;2022-07-12T11:30:04;66650.81;;;-145.83
62831;BMP280;48889;55.782;37.708;2022-07-12T11:32:39;66650.81;;;-145.83
62831;BMP280;48889;55.782;37.708;2022-07-12T11:35:26;66650.81;;;-145.83
62831;BMP280;48889;55.782;37.708;2022-07-12T11:37:55;66650.81;;;-145.83
62831;BMP280;48889;55.782;37.708;2022-07-12T11:40:23;66650.81;;;-145.83
62831;BMP280;48889;55.782;37.708;2022-07-12T11:42:53;66650.81;;;-145.83
62831;BMP280;48889;55.782;37.708;2022-07-12T11:45:19;66650.81;;;-145.83
62831;BMP280;48889;55.782;37.708;2022-07-12T11:47:45;66650.81;;;-145.83
62831;BMP280;48889;55.782;37.708;2022-07-12T11:50:10;66650.81;;;-145.83
62831;BMP280;48889;55.782;37.708;2022-07-12T11:52:36;66650.81;;;-145.83
62831;BMP280;48889;55.782;37.708;2022-07-12T11:55:07;66650.81;;;-145.83
62831;BMP280;48889;55.782;37.708;2022-07-12T11:57:33;66650.81;;;-145.83
62831;BMP280;48889;55.782;37.708;2022-07-12T12:00:16;66650.81;;;-145.83
62831;BMP280;48889;55.782;37.708;2022-07-12T12:02:42;66650.81;;;-145.83
62831;BMP280;48889;55.782;37.708;2022-07-12T12:05:08;66650.81;;;-145.83
62831;BMP280;48889;55.782;37.708;2022-07-12T12:07:35;66650.81;;;-145.83
62831;BMP280;48889;55.782;37.708;2022-07-12T12:10:11;66650.81;;;-145.83
62831;BMP280;48889;55.782;37.708;2022-07-12T12:12:49;66650.81;;;-145.83
62831;BMP280;48889;55.782;37.708;2022-07-12T12:15:21;66650.81;;;-145.83
62831;BMP280;48889;55.782;37.708;2022-07-12T12:20:18;66650.81;;;-145.83
62831;BMP280;48889;55.782;37.708;2022-07-12T12:22:49;66650.81;;;-145.83
62831;BMP280;48889;55.782;37.708;2022-07-12T12:25:15;66650.81;;;-145.83
62831;BMP280;48889;55.782;37.708;2022-07-12T12:27:46;66650.81;;;-145.83
62831;BMP280;48889;55.782;37.708;2022-07-12T12:30:13;66650.81;;;-145.83
62831;BMP280;48889;55.782;37.708;2022-07-12T12:32:49;66650.81;;;-145.83
62831;BMP280;48889;55.782;37.708;2022-07-12T12:35:30;66650.81;;;-145.83
62831;BMP280;48889;55.782;37.708;2022-07-12T12:37:57;66650.81;;;-145.83
62831;BMP280;48889;55.782;37.708;2022-07-12T12:40:26;66650.81;;;-145.83
62831;BMP280;48889;55.782;37.708;2022-07-12T12:42:52;66650.81;;;-145.83
62831;BMP280;48889;55.782;37.708;2022-07-12T12:45:24;66650.81;;;-145.83
62831;BMP280;48889;55.782;37.708;2022-07-12T12:48:21;66650.81;;;-145.83
62831;BMP280;48889;55.782;37.708;2022-07-12T12:51:12;66650.81;;;-145.83
62831;BMP280;48889;55.782;37.708;2022-07-12T12:56:51;66650.81;;;-145.83
62831;BMP280;48889;55.782;37.708;2022-07-12T12:59:16;66650.81;;;-145.83
62831;BMP280;48889;55.782;37.708;2022-07-12T13:01:42;66650.81;;;-145.83
62831;BMP280;48889;55.782;37.708;2022-07-12T13:04:11;66650.81;;;-145.83
62831;BMP280;48889;55.782;37.708;2022-07-12T13:06:36;66650.81;;;-145.83
62831;BMP280;48889;55.782;37.708;2022-07-12T13:09:02;66650.81;;;-145.83
62831;BMP280;48889;55.782;37.708;2022-07-12T13:11:28;66650.81;;;-145.83
62831;BMP280;48889;55.782;37.708;2022-07-12T13:13:54;66650.81;;;-145.83
62831;BMP280;48889;55.782;37.708;2022-07-12T13:16:20;66650.81;;;-145.83
62831;BMP280;48889;55.782;37.708;2022-07-12T13:18:45;66650.81;;;-145.83
62831;BMP280;48889;55.782;37.708;2022-07-12T13:21:11;66650.81;;;-145.83
62831;BMP280;48889;55.782;37.708;2022-07-12T13:23:37;66650.81;;;-145.83
62831;BMP280;48889;55.782;37.708;2022-07-12T13:26:02;66650.81;;;-145.83
62831;BMP280;48889;55.782;37.708;2022-07-12T13:28:28;66650.81;;;-145.83
62831;BMP280;48889;55.782;37.708;2022-07-12T13:30:54;66650.81;;;-145.83
62831;BMP280;48889;55.782;37.708;2022-07-12T13:33:20;66650.81;;;-145.83
62831;BMP280;48889;55.782;37.708;2022-07-12T13:35:46;66650.81;;;-145.83
62831;BMP280;48889;55.782;37.708;2022-07-12T13:38:12;66650.81;;;-145.83
62831;BMP280;48889;55.782;37.708;2022-07-12T13:40:37;66650.81;;;-145.83
62831;BMP280;48889;55.782;37.708;2022-07-12T13:43:03;66650.81;;;-145.83
62831;BMP280;48889;55.782;37.708;2022-07-12T13:45:29;66650.81;;;-145.83
62831;BMP280;48889;55.782;37.708;2022-07-12T13:47:54;66650.81;;;-145.83
62831;BMP280;48889;55.782;37.708;2022-07-12T13:50:23;66650.81;;;-145.83
62831;BMP280;48889;55.782;37.708;2022-07-12T13:52:49;66650.81;;;-145.83
62831;BMP280;48889;55.782;37.708;2022-07-12T13:55:16;66650.81;;;-145.83
62831;BMP280;48889;55.782;37.708;2022-07-12T13:57:43;66650.81;;;-145.83
62831;BMP280;48889;55.782;37.708;2022-07-12T14:00:11;66650.81;;;-145.83
62831;BMP280;48889;55.782;37.708;2022-07-12T14:02:40;66650.81;;;-145.83
62831;BMP280;48889;55.782;37.708;2022-07-12T14:05:07;66650.81;;;-145.83